createdAt,value
2022-09-17T00:02:30.256Z,1.63
2022-09-17T00:05:15.706Z,1.70
2022-09-17T00:08:00.777Z,1.63
2022-09-17T00:10:46.134Z,1.80
2022-09-17T00:13:30.976Z,1.70
2022-09-17T00:16:34.994Z,1.80
2022-09-17T00:19:22.966Z,1.93
2022-09-17T00:22:08.017Z,1.87
2022-09-17T00:24:53.137Z,1.63
2022-09-17T00:27:38.470Z,1.83
2022-09-17T00:30:23.678Z,1.70
2022-09-17T00:33:11.145Z,1.77
2022-09-17T00:36:00.878Z,1.57
2022-09-17T00:38:54.025Z,1.50
2022-09-17T00:41:39.545Z,1.77
2022-09-17T00:44:48.106Z,1.70
2022-09-17T00:47:44.904Z,1.77
2022-09-17T00:50:36.841Z,1.70
2022-09-17T00:53:22.738Z,1.83
2022-09-17T00:56:19.860Z,1.50
2022-09-17T00:59:05.516Z,1.70
2022-09-17T01:01:50.824Z,1.97
2022-09-17T01:04:36.270Z,1.63
2022-09-17T01:07:39.152Z,1.90
2022-09-17T01:10:43.514Z,1.53
2022-09-17T01:13:47.094Z,1.37
2022-09-17T01:17:00.198Z,1.67
2022-09-17T01:20:07.323Z,1.60
2022-09-17T01:23:09.712Z,1.40
2022-09-17T01:26:20.992Z,1.50
2022-09-17T01:29:24.171Z,1.70
2022-09-17T01:32:28.896Z,1.50
2022-09-17T01:35:50.755Z,1.40
2022-09-17T01:38:57.556Z,1.33
2022-09-17T01:41:54.670Z,1.90
2022-09-17T01:44:58.413Z,1.50
2022-09-17T01:47:51.806Z,1.33
2022-09-17T01:50:52.347Z,1.47
2022-09-17T01:53:58.539Z,1.70
2022-09-17T01:56:55.013Z,1.50
2022-09-17T01:59:51.481Z,1.60
2022-09-17T02:02:39.475Z,1.30
2022-09-17T02:05:32.458Z,1.70
2022-09-17T02:08:24.440Z,1.40
2022-09-17T02:11:14.311Z,1.47
2022-09-17T02:14:03.116Z,1.30
2022-09-17T02:16:54.194Z,1.60
2022-09-17T02:19:40.542Z,1.30
2022-09-17T02:22:43.866Z,1.73
2022-09-17T02:25:36.558Z,1.63
2022-09-17T02:28:51.239Z,1.60
2022-09-17T02:31:36.526Z,1.53
2022-09-17T02:34:23.321Z,1.30
2022-09-17T02:37:08.902Z,1.60
2022-09-17T02:39:54.524Z,1.70
2022-09-17T02:43:11.109Z,1.50
2022-09-17T02:46:34.193Z,1.60
2022-09-17T02:49:36.273Z,1.53
2022-09-17T02:52:39.514Z,1.40
2022-09-17T02:55:51.051Z,1.37
2022-09-17T02:58:57.771Z,1.20
2022-09-17T03:01:51.341Z,1.60
2022-09-17T03:04:38.389Z,1.13
2022-09-17T03:07:24.392Z,1.57
2022-09-17T03:10:09.469Z,1.30
2022-09-17T03:12:54.682Z,1.23
2022-09-17T03:15:39.889Z,1.30
2022-09-17T03:18:24.601Z,1.57
2022-09-17T03:21:10.461Z,1.50
2022-09-17T03:23:55.314Z,1.50
2022-09-17T03:26:40.216Z,1.40
2022-09-17T03:29:25.698Z,1.20
2022-09-17T03:32:11.313Z,1.40
2022-09-17T03:34:56.522Z,1.77
2022-09-17T03:37:41.574Z,1.20
2022-09-17T03:40:26.641Z,1.33
2022-09-17T03:43:11.789Z,1.20
2022-09-17T03:45:56.655Z,1.27
2022-09-17T03:48:41.795Z,1.20
2022-09-17T03:51:26.652Z,1.47
2022-09-17T03:54:11.693Z,0.97
2022-09-17T03:56:56.574Z,1.40
2022-09-17T03:59:41.574Z,1.17
2022-09-17T04:02:26.710Z,1.23
2022-09-17T04:05:11.900Z,1.17
2022-09-17T04:07:57.327Z,1.60
2022-09-17T04:10:42.223Z,1.10
2022-09-17T04:13:27.383Z,1.50
2022-09-17T04:16:12.350Z,1.10
2022-09-17T04:18:57.783Z,1.13
2022-09-17T04:21:42.711Z,1.20
2022-09-17T04:24:27.944Z,1.10
2022-09-17T04:27:13.011Z,0.77
2022-09-17T04:29:57.902Z,1.20
2022-09-17T04:32:44.602Z,1.43
2022-09-17T04:35:30.037Z,1.10
2022-09-17T04:38:18.409Z,1.20
2022-09-17T04:41:07.214Z,1.03
2022-09-17T04:43:52.190Z,1.00
2022-09-17T04:46:37.193Z,1.00
2022-09-17T04:49:22.582Z,1.30
2022-09-17T04:52:07.434Z,0.90
2022-09-17T04:54:52.248Z,1.13
2022-09-17T04:57:37.442Z,1.30
2022-09-17T05:00:23.382Z,1.10
2022-09-17T05:03:09.017Z,1.07
2022-09-17T05:05:53.959Z,1.10
2022-09-17T05:08:38.910Z,1.20
2022-09-17T05:11:23.825Z,0.97
2022-09-17T05:14:08.954Z,1.07
2022-09-17T05:16:54.037Z,1.03
2022-09-17T05:19:38.894Z,1.13
2022-09-17T05:22:23.842Z,1.10
2022-09-17T05:25:08.906Z,1.30
2022-09-17T05:27:54.719Z,1.20
2022-09-17T05:30:39.803Z,1.00
2022-09-17T05:33:24.805Z,0.97
2022-09-17T05:36:09.827Z,0.90
2022-09-17T05:38:55.100Z,1.00
2022-09-17T05:41:39.898Z,1.07
2022-09-17T05:44:25.883Z,0.97
2022-09-17T05:47:12.020Z,1.13
2022-09-17T05:49:57.034Z,1.10
2022-09-17T05:52:42.010Z,0.90
2022-09-17T05:55:27.822Z,1.10
2022-09-17T05:58:15.643Z,1.00
2022-09-17T06:01:01.558Z,0.90
2022-09-17T06:03:46.668Z,1.20
2022-09-17T06:06:32.174Z,0.80
2022-09-17T06:09:17.543Z,0.90
2022-09-17T06:12:03.004Z,1.10
2022-09-17T06:14:48.045Z,0.90
2022-09-17T06:17:35.068Z,1.10
2022-09-17T06:20:20.915Z,0.90
2022-09-17T06:23:06.106Z,1.00
2022-09-17T06:26:01.201Z,0.90
2022-09-17T06:28:46.550Z,0.80
2022-09-17T06:31:31.968Z,1.07
2022-09-17T06:34:17.773Z,1.20
2022-09-17T06:37:02.628Z,1.00
2022-09-17T06:39:47.628Z,0.90
2022-09-17T06:42:32.488Z,0.80
2022-09-17T06:45:17.514Z,1.03
2022-09-17T06:48:06.149Z,0.90
2022-09-17T06:50:51.611Z,1.10
2022-09-17T06:53:38.077Z,0.80
2022-09-17T06:56:23.240Z,0.93
2022-09-17T06:59:08.072Z,0.70
2022-09-17T07:01:53.727Z,0.70
2022-09-17T07:04:38.845Z,0.83
2022-09-17T07:07:23.788Z,0.70
2022-09-17T07:10:08.951Z,0.80
2022-09-17T07:12:54.658Z,0.80
2022-09-17T07:15:39.532Z,0.90
2022-09-17T07:18:25.671Z,0.80
2022-09-17T07:21:10.961Z,0.90
2022-09-17T07:23:56.063Z,1.10
2022-09-17T07:26:40.937Z,0.80
2022-09-17T07:29:28.702Z,0.90
2022-09-17T07:32:13.960Z,0.70
2022-09-17T07:34:59.119Z,0.70
2022-09-17T07:37:44.076Z,0.90
2022-09-17T07:40:29.223Z,0.97
2022-09-17T07:43:15.187Z,0.80
2022-09-17T07:46:03.235Z,0.90
2022-09-17T07:48:49.272Z,0.80
2022-09-17T07:51:34.198Z,0.87
2022-09-17T07:54:19.474Z,0.90
2022-09-17T07:57:04.969Z,0.73
2022-09-17T07:59:50.303Z,0.70
2022-09-17T08:02:35.691Z,0.87
2022-09-17T08:05:21.138Z,0.93
2022-09-17T08:08:05.958Z,0.83
2022-09-17T08:10:50.862Z,0.60
2022-09-17T08:13:36.458Z,1.10
2022-09-17T08:16:23.187Z,0.90
2022-09-17T08:19:11.341Z,0.80
2022-09-17T08:21:56.600Z,0.80
2022-09-17T08:24:42.498Z,0.70
2022-09-17T08:27:27.350Z,1.00
2022-09-17T08:30:12.582Z,0.87
2022-09-17T08:32:57.760Z,0.70
2022-09-17T08:35:50.447Z,0.63
2022-09-17T08:38:39.067Z,0.60
2022-09-17T08:41:48.834Z,0.90
2022-09-17T08:44:42.539Z,0.87
2022-09-17T08:47:45.903Z,0.70
2022-09-17T08:50:33.997Z,0.77
2022-09-17T08:53:29.870Z,0.83
2022-09-17T08:56:18.913Z,0.80
2022-09-17T08:59:09.347Z,0.70
2022-09-17T09:02:19.383Z,0.70
2022-09-17T09:05:22.773Z,0.70
2022-09-17T09:08:19.079Z,0.80
2022-09-17T09:11:07.385Z,0.60
2022-09-17T09:14:17.803Z,0.80
2022-09-17T09:17:08.581Z,0.60
2022-09-17T09:19:54.421Z,0.70
2022-09-17T09:22:49.699Z,0.73
2022-09-17T09:25:46.382Z,0.87
2022-09-17T09:28:57.413Z,0.87
2022-09-17T09:32:16.388Z,0.77
2022-09-17T09:35:16.122Z,0.70
2022-09-17T09:38:13.998Z,0.73
2022-09-17T09:41:17.886Z,0.73
2022-09-17T09:44:10.247Z,0.80
2022-09-17T09:46:58.479Z,0.80
2022-09-17T09:50:10.421Z,0.90
2022-09-17T09:53:14.677Z,0.67
2022-09-17T09:56:32.533Z,0.70
2022-09-17T09:59:18.990Z,0.80
2022-09-17T10:02:04.854Z,0.73
2022-09-17T10:04:53.492Z,0.77
2022-09-17T10:07:46.013Z,0.70
2022-09-17T10:10:31.338Z,0.80
2022-09-17T10:13:17.724Z,0.80
2022-09-17T10:16:25.146Z,0.90
2022-09-17T10:19:20.086Z,0.90
2022-09-17T10:22:30.470Z,0.77
2022-09-17T10:25:27.657Z,0.70
2022-09-17T10:28:33.714Z,0.60
2022-09-17T10:31:19.136Z,0.60
2022-09-17T10:34:04.585Z,0.70
2022-09-17T10:36:49.893Z,0.80
2022-09-17T10:39:46.543Z,0.60
2022-09-17T10:42:31.518Z,0.70
2022-09-17T10:45:27.806Z,0.70
2022-09-17T10:48:20.300Z,0.77
2022-09-17T10:51:06.707Z,0.60
2022-09-17T10:54:25.887Z,0.70
2022-09-17T10:57:24.572Z,0.80
2022-09-17T11:00:18.533Z,0.83
2022-09-17T11:03:19.449Z,0.90
2022-09-17T11:06:29.122Z,0.80
2022-09-17T11:09:30.478Z,0.80
2022-09-17T11:12:20.820Z,0.80
2022-09-17T11:15:35.762Z,0.70
2022-09-17T11:18:20.717Z,0.80
2022-09-17T11:21:35.771Z,0.70
2022-09-17T11:24:44.659Z,0.90
2022-09-17T11:27:48.365Z,0.70
2022-09-17T11:30:49.505Z,0.53
2022-09-17T11:34:03.278Z,1.00
2022-09-17T11:37:01.585Z,0.93
2022-09-17T11:39:55.051Z,0.80
2022-09-17T11:42:47.947Z,0.87
2022-09-17T11:45:47.927Z,1.00
2022-09-17T11:48:44.438Z,0.80
2022-09-17T11:52:02.002Z,0.83
2022-09-17T11:54:55.515Z,0.83
2022-09-17T11:57:42.210Z,0.80
2022-09-17T12:00:31.218Z,0.63
2022-09-17T12:03:26.114Z,0.93
2022-09-17T12:06:19.391Z,0.63
2022-09-17T12:09:26.189Z,0.80
2022-09-17T12:12:44.780Z,0.70
2022-09-17T12:15:27.816Z,0.73
2022-09-17T12:18:32.303Z,0.70
2022-09-17T12:21:26.038Z,0.70
2022-09-17T12:24:23.971Z,0.80
2022-09-17T12:27:16.941Z,0.50
2022-09-17T12:30:06.673Z,0.70
2022-09-17T12:33:34.020Z,0.83
2022-09-17T12:36:42.501Z,0.60
2022-09-17T12:39:46.309Z,0.80
2022-09-17T12:42:56.112Z,0.83
2022-09-17T12:45:57.309Z,0.63
2022-09-17T12:49:32.607Z,1.10
2022-09-17T12:52:39.679Z,0.87
2022-09-17T12:55:39.251Z,0.80
2022-09-17T12:58:42.929Z,0.97
2022-09-17T13:01:44.435Z,0.90
2022-09-17T13:05:02.022Z,0.80
2022-09-17T13:08:03.286Z,0.60
2022-09-17T13:11:13.183Z,0.73
2022-09-17T13:14:19.210Z,1.27
2022-09-17T13:17:18.006Z,1.00
2022-09-17T13:20:16.449Z,0.50
2022-09-17T13:23:01.938Z,0.90
2022-09-17T13:25:53.372Z,0.97
2022-09-17T13:28:47.839Z,0.80
2022-09-17T13:31:39.432Z,0.90
2022-09-17T13:34:32.041Z,0.67
2022-09-17T13:37:22.406Z,0.87
2022-09-17T13:40:22.872Z,1.20
2022-09-17T13:43:12.836Z,1.10
2022-09-17T13:46:01.003Z,0.70
2022-09-17T13:48:50.280Z,1.00
2022-09-17T13:51:38.997Z,0.90
2022-09-17T13:54:36.810Z,0.90
2022-09-17T13:57:22.504Z,0.83
2022-09-17T14:00:57.516Z,1.10
2022-09-17T14:03:45.380Z,1.00
2022-09-17T14:06:34.361Z,1.00
2022-09-17T14:09:48.974Z,0.77
2022-09-17T14:12:58.574Z,1.00
2022-09-17T14:15:43.718Z,1.03
2022-09-17T14:18:28.981Z,0.90
2022-09-17T14:21:27.401Z,0.93
2022-09-17T14:24:52.360Z,0.80
2022-09-17T14:27:51.456Z,1.00
2022-09-17T14:30:36.723Z,1.10
2022-09-17T14:33:28.450Z,0.90
2022-09-17T14:36:20.336Z,0.77
2022-09-17T14:39:15.854Z,0.90
2022-09-17T14:42:01.826Z,1.03
2022-09-17T14:45:00.356Z,1.20
2022-09-17T14:47:45.431Z,1.03
2022-09-17T14:50:31.369Z,1.07
2022-09-17T14:53:18.618Z,0.90
2022-09-17T14:56:03.951Z,1.00
2022-09-17T14:58:53.183Z,1.00
2022-09-17T15:01:38.063Z,1.20
2022-09-17T15:04:26.209Z,1.40
2022-09-17T15:07:12.598Z,1.27
2022-09-17T15:10:19.427Z,0.70
2022-09-17T15:13:07.650Z,1.00
2022-09-17T15:16:07.665Z,0.90
2022-09-17T15:18:59.245Z,1.20
2022-09-17T15:21:46.482Z,0.90
2022-09-17T15:24:50.293Z,1.00
2022-09-17T15:27:41.621Z,0.67
2022-09-17T15:30:27.112Z,0.70
2022-09-17T15:33:13.279Z,0.90
2022-09-17T15:36:00.858Z,0.77
2022-09-17T15:38:46.027Z,0.97
2022-09-17T15:41:36.332Z,0.90
2022-09-17T15:44:32.049Z,0.90
2022-09-17T15:47:50.255Z,0.90
2022-09-17T15:50:50.733Z,0.90
2022-09-17T15:53:36.507Z,1.07
2022-09-17T15:56:26.552Z,0.90
2022-09-17T15:59:29.476Z,0.90
2022-09-17T16:02:29.603Z,0.77
2022-09-17T16:05:17.719Z,1.00
2022-09-17T16:08:20.338Z,0.80
2022-09-17T16:11:05.189Z,0.90
2022-09-17T16:13:51.321Z,0.77
2022-09-17T16:16:38.273Z,0.97
2022-09-17T16:19:23.386Z,0.70
2022-09-17T16:22:08.279Z,0.80
2022-09-17T16:24:53.350Z,1.10
2022-09-17T16:27:52.069Z,1.07
2022-09-17T16:30:37.580Z,0.70
2022-09-17T16:33:22.648Z,0.70
2022-09-17T16:36:08.070Z,0.70
2022-09-17T16:38:53.205Z,0.70
2022-09-17T16:41:38.258Z,0.90
2022-09-17T16:44:23.188Z,0.87
2022-09-17T16:47:08.166Z,0.77
2022-09-17T16:49:53.521Z,0.40
2022-09-17T16:52:38.438Z,0.80
2022-09-17T16:55:23.690Z,0.90
2022-09-17T16:58:08.790Z,0.50
2022-09-17T17:00:54.195Z,0.73
2022-09-17T17:03:39.942Z,0.70
2022-09-17T17:06:24.863Z,0.70
2022-09-17T17:09:12.170Z,0.70
2022-09-17T17:11:57.121Z,0.70
2022-09-17T17:14:42.442Z,0.70
2022-09-17T17:17:27.724Z,0.60
2022-09-17T17:20:13.602Z,0.70
2022-09-17T17:22:58.537Z,0.60
2022-09-17T17:25:43.566Z,0.60
2022-09-17T17:28:32.387Z,0.70
2022-09-17T17:31:17.490Z,0.70
2022-09-17T17:34:02.670Z,0.60
2022-09-17T17:36:49.795Z,0.80
2022-09-17T17:39:34.741Z,0.80
2022-09-17T17:42:20.913Z,0.70
2022-09-17T17:45:08.055Z,0.47
2022-09-17T17:47:52.959Z,0.90
2022-09-17T17:50:37.897Z,0.80
2022-09-17T17:53:22.840Z,0.80
2022-09-17T17:56:09.019Z,0.83
2022-09-17T17:58:58.577Z,0.87
2022-09-17T18:01:44.031Z,0.80
2022-09-17T18:04:29.213Z,0.60
2022-09-17T18:07:14.393Z,0.77
2022-09-17T18:09:59.130Z,0.77
2022-09-17T18:12:50.378Z,0.53
2022-09-17T18:15:35.527Z,0.60
2022-09-17T18:18:21.350Z,0.70
2022-09-17T18:21:08.346Z,0.57
2022-09-17T18:23:53.730Z,0.63
2022-09-17T18:26:39.008Z,0.87
2022-09-17T18:29:23.862Z,0.60
2022-09-17T18:32:09.324Z,0.60
2022-09-17T18:34:54.374Z,0.57
2022-09-17T18:37:39.341Z,0.77
2022-09-17T18:40:24.762Z,0.50
2022-09-17T18:43:10.297Z,0.57
2022-09-17T18:45:56.508Z,0.90
2022-09-17T18:48:41.871Z,0.60
2022-09-17T18:51:27.975Z,0.77
2022-09-17T18:54:13.050Z,0.60
2022-09-17T18:56:58.265Z,0.70
2022-09-17T18:59:43.083Z,0.80
2022-09-17T19:02:28.038Z,0.80
2022-09-17T19:05:13.599Z,0.50
2022-09-17T19:07:58.498Z,0.63
2022-09-17T19:10:50.451Z,0.43
2022-09-17T19:13:44.426Z,0.70
2022-09-17T19:16:29.846Z,0.60
2022-09-17T19:19:15.057Z,0.50
2022-09-17T19:22:00.072Z,0.67
2022-09-17T19:24:44.952Z,0.70
2022-09-17T19:27:29.868Z,0.53
2022-09-17T19:30:15.133Z,0.50
2022-09-17T19:33:00.606Z,0.57
2022-09-17T19:35:45.833Z,0.67
2022-09-17T19:38:30.840Z,0.90
2022-09-17T19:41:18.859Z,0.50
2022-09-17T19:44:04.061Z,0.67
2022-09-17T19:46:51.115Z,0.70
2022-09-17T19:49:36.599Z,0.60
2022-09-17T19:52:21.694Z,0.90
2022-09-17T19:55:12.101Z,0.77
2022-09-17T19:58:03.626Z,0.47
2022-09-17T20:00:55.011Z,0.40
2022-09-17T20:03:42.219Z,0.53
2022-09-17T20:06:30.306Z,0.60
2022-09-17T20:09:15.360Z,0.67
2022-09-17T20:12:01.143Z,0.50
2022-09-17T20:14:46.311Z,0.50
2022-09-17T20:17:31.239Z,0.47
2022-09-17T20:20:17.043Z,0.70
2022-09-17T20:23:01.954Z,0.60
2022-09-17T20:25:53.734Z,0.60
2022-09-17T20:28:39.643Z,0.60
2022-09-17T20:31:27.775Z,0.73
2022-09-17T20:34:13.140Z,0.63
2022-09-17T20:37:12.292Z,0.60
2022-09-17T20:39:58.219Z,0.53
2022-09-17T20:42:43.632Z,0.60
2022-09-17T20:45:28.382Z,0.70
2022-09-17T20:48:13.405Z,0.60
2022-09-17T20:51:06.615Z,0.40
2022-09-17T20:53:52.478Z,0.57
2022-09-17T20:56:37.785Z,0.93
2022-09-17T20:59:25.010Z,0.43
2022-09-17T21:02:11.381Z,0.50
2022-09-17T21:04:56.612Z,0.70
2022-09-17T21:07:41.740Z,0.40
2022-09-17T21:10:26.572Z,0.60
2022-09-17T21:13:11.610Z,0.40
2022-09-17T21:16:00.709Z,0.67
2022-09-17T21:18:45.636Z,0.90
2022-09-17T21:21:34.258Z,0.63
2022-09-17T21:24:19.573Z,0.80
2022-09-17T21:27:05.469Z,0.47
2022-09-17T21:29:50.795Z,0.73
2022-09-17T21:32:37.751Z,0.60
2022-09-17T21:35:25.276Z,0.50
2022-09-17T21:38:10.532Z,0.47
2022-09-17T21:40:56.975Z,0.50
2022-09-17T21:43:43.488Z,0.43
2022-09-17T21:46:33.195Z,0.53
2022-09-17T21:49:18.489Z,0.50
2022-09-17T21:52:03.496Z,0.60
2022-09-17T21:54:48.466Z,0.80
2022-09-17T21:57:33.374Z,0.53
2022-09-17T22:00:23.152Z,0.70
2022-09-17T22:03:09.189Z,0.70
2022-09-17T22:05:54.538Z,0.60
2022-09-17T22:08:40.178Z,0.70
2022-09-17T22:11:29.433Z,0.80
2022-09-17T22:14:19.060Z,0.70
2022-09-17T22:17:04.318Z,0.70
2022-09-17T22:19:49.217Z,0.60
2022-09-17T22:22:34.006Z,0.50
2022-09-17T22:25:18.822Z,0.70
2022-09-17T22:28:20.600Z,0.53
2022-09-17T22:31:10.019Z,0.53
2022-09-17T22:33:55.302Z,0.50
2022-09-17T22:36:40.693Z,0.63
2022-09-17T22:39:25.615Z,0.43
2022-09-17T22:42:10.335Z,0.60
2022-09-17T22:44:55.215Z,0.50
2022-09-17T22:47:41.083Z,0.80
2022-09-17T22:50:25.893Z,0.70
2022-09-17T22:53:10.863Z,0.80
2022-09-17T22:55:57.285Z,0.57
2022-09-17T22:58:42.933Z,0.70
2022-09-17T23:01:33.869Z,0.50
2022-09-17T23:04:19.066Z,0.50
2022-09-17T23:07:04.549Z,0.50
2022-09-17T23:09:51.136Z,0.67
2022-09-17T23:12:36.005Z,0.60
2022-09-17T23:15:26.244Z,0.50
2022-09-17T23:18:11.571Z,0.57
2022-09-17T23:21:06.938Z,0.53
2022-09-17T23:23:51.968Z,0.63
2022-09-17T23:26:37.372Z,0.63
2022-09-17T23:29:22.585Z,0.50
2022-09-17T23:32:07.645Z,0.50
2022-09-17T23:34:52.710Z,0.77
2022-09-17T23:37:37.617Z,0.50
2022-09-17T23:40:23.318Z,0.60
2022-09-17T23:43:08.790Z,0.47
2022-09-17T23:45:57.063Z,0.60
2022-09-17T23:48:42.959Z,0.80
2022-09-17T23:51:30.958Z,0.67
2022-09-17T23:54:16.201Z,0.40
2022-09-17T23:57:01.001Z,0.70
2022-09-17T23:59:45.848Z,0.50
